sensor_id;sensor_type;location;lat;lon;timestamp;pressure;altitude;pressure_sealevel;temperature;humidity
65880;BME280;52661;51.364;6.054;2022-11-20T00:00:46;100982.28;;;1.83;87.64
65880;BME280;52661;51.364;6.054;2022-11-20T00:03:12;100979.28;;;1.84;86.80
65880;BME280;52661;51.364;6.054;2022-11-20T00:05:37;100979.84;;;1.69;87.34
65880;BME280;52661;51.364;6.054;2022-11-20T00:08:03;100975.28;;;1.70;86.29
65880;BME280;52661;51.364;6.054;2022-11-20T00:10:29;100971.66;;;1.66;86.80
65880;BME280;52661;51.364;6.054;2022-11-20T00:12:54;100978.28;;;1.60;87.74
65880;BME280;52661;51.364;6.054;2022-11-20T00:15:19;100974.38;;;1.57;87.69
65880;BME280;52661;51.364;6.054;2022-11-20T00:17:45;100969.44;;;1.68;88.63
65880;BME280;52661;51.364;6.054;2022-11-20T00:20:10;100962.78;;;1.74;89.80
65880;BME280;52661;51.364;6.054;2022-11-20T00:22:36;100961.03;;;1.78;90.14
65880;BME280;52661;51.364;6.054;2022-11-20T00:25:01;100951.38;;;1.65;90.76
65880;BME280;52661;51.364;6.054;2022-11-20T00:27:27;100950.53;;;1.73;90.41
65880;BME280;52661;51.364;6.054;2022-11-20T00:29:52;100945.84;;;1.70;89.80
65880;BME280;52661;51.364;6.054;2022-11-20T00:32:17;100947.72;;;1.69;90.09
65880;BME280;52661;51.364;6.054;2022-11-20T00:34:42;100954.72;;;1.53;91.07
65880;BME280;52661;51.364;6.054;2022-11-20T00:37:08;100949.69;;;1.52;91.59
65880;BME280;52661;51.364;6.054;2022-11-20T00:39:33;100949.50;;;1.57;91.71
65880;BME280;52661;51.364;6.054;2022-11-20T00:41:58;100934.41;;;1.52;91.39
65880;BME280;52661;51.364;6.054;2022-11-20T00:44:24;100924.56;;;1.44;91.89
65880;BME280;52661;51.364;6.054;2022-11-20T00:46:49;100924.81;;;1.22;92.94
65880;BME280;52661;51.364;6.054;2022-11-20T00:49:14;100929.88;;;1.06;93.39
65880;BME280;52661;51.364;6.054;2022-11-20T00:51:40;100933.34;;;1.07;93.73
65880;BME280;52661;51.364;6.054;2022-11-20T00:54:05;100938.34;;;1.17;93.19
65880;BME280;52661;51.364;6.054;2022-11-20T00:56:30;100926.69;;;1.21;93.35
65880;BME280;52661;51.364;6.054;2022-11-20T00:58:59;100926.53;;;1.26;93.17
65880;BME280;52661;51.364;6.054;2022-11-20T01:01:25;100927.97;;;1.15;93.46
65880;BME280;52661;51.364;6.054;2022-11-20T01:03:52;100926.97;;;1.28;92.44
65880;BME280;52661;51.364;6.054;2022-11-20T01:06:20;100929.25;;;1.09;92.63
65880;BME280;52661;51.364;6.054;2022-11-20T01:08:46;100918.91;;;0.99;92.52
65880;BME280;52661;51.364;6.054;2022-11-20T01:11:15;100928.44;;;1.09;92.54
65880;BME280;52661;51.364;6.054;2022-11-20T01:13:41;100930.66;;;1.15;91.98
65880;BME280;52661;51.364;6.054;2022-11-20T01:18:38;100935.53;;;1.13;90.86
65880;BME280;52661;51.364;6.054;2022-11-20T01:21:07;100918.69;;;1.13;91.11
65880;BME280;52661;51.364;6.054;2022-11-20T01:23:38;100921.69;;;1.11;90.87
65880;BME280;52661;51.364;6.054;2022-11-20T01:26:07;100920.44;;;1.09;90.82
65880;BME280;52661;51.364;6.054;2022-11-20T01:28:32;100920.91;;;1.11;91.31
65880;BME280;52661;51.364;6.054;2022-11-20T01:30:58;100920.56;;;1.12;91.17
65880;BME280;52661;51.364;6.054;2022-11-20T01:33:25;100926.72;;;1.13;91.48
65880;BME280;52661;51.364;6.054;2022-11-20T01:35:51;100929.88;;;1.06;91.58
65880;BME280;52661;51.364;6.054;2022-11-20T01:38:16;100919.16;;;1.15;91.55
65880;BME280;52661;51.364;6.054;2022-11-20T01:40:42;100918.38;;;1.23;91.27
65880;BME280;52661;51.364;6.054;2022-11-20T01:43:17;100924.31;;;1.20;91.22
65880;BME280;52661;51.364;6.054;2022-11-20T01:48:37;100922.78;;;1.19;91.62
65880;BME280;52661;51.364;6.054;2022-11-20T01:51:05;100935.16;;;1.23;91.47
65880;BME280;52661;51.364;6.054;2022-11-20T01:53:34;100925.13;;;1.20;91.36
65880;BME280;52661;51.364;6.054;2022-11-20T01:56:03;100931.09;;;1.17;91.68
65880;BME280;52661;51.364;6.054;2022-11-20T01:58:33;100924.38;;;1.11;91.47
65880;BME280;52661;51.364;6.054;2022-11-20T02:01:00;100919.38;;;1.01;92.26
65880;BME280;52661;51.364;6.054;2022-11-20T02:03:27;100923.16;;;1.00;92.34
65880;BME280;52661;51.364;6.054;2022-11-20T02:06:06;100917.97;;;0.95;92.59
65880;BME280;52661;51.364;6.054;2022-11-20T02:08:35;100917.31;;;1.07;92.33
65880;BME280;52661;51.364;6.054;2022-11-20T02:11:01;100919.03;;;1.03;92.50
65880;BME280;52661;51.364;6.054;2022-11-20T02:13:27;100909.28;;;1.07;92.55
65880;BME280;52661;51.364;6.054;2022-11-20T02:16:08;100911.31;;;1.10;92.67
65880;BME280;52661;51.364;6.054;2022-11-20T02:18:34;100910.09;;;0.98;93.26
65880;BME280;52661;51.364;6.054;2022-11-20T02:21:06;100911.88;;;0.86;93.15
65880;BME280;52661;51.364;6.054;2022-11-20T02:24:00;100911.13;;;0.68;94.65
65880;BME280;52661;51.364;6.054;2022-11-20T02:26:28;100912.06;;;0.64;94.77
65880;BME280;52661;51.364;6.054;2022-11-20T02:28:55;100912.09;;;0.46;95.89
65880;BME280;52661;51.364;6.054;2022-11-20T02:31:20;100912.88;;;0.38;96.00
65880;BME280;52661;51.364;6.054;2022-11-20T02:33:46;100905.97;;;0.20;97.58
65880;BME280;52661;51.364;6.054;2022-11-20T02:36:14;100902.97;;;0.22;96.91
65880;BME280;52661;51.364;6.054;2022-11-20T02:38:41;100894.66;;;0.06;97.76
65880;BME280;52661;51.364;6.054;2022-11-20T02:41:07;100900.31;;;0.13;97.62
65880;BME280;52661;51.364;6.054;2022-11-20T02:43:32;100901.72;;;0.02;97.35
65880;BME280;52661;51.364;6.054;2022-11-20T02:45:58;100919.00;;;0.13;97.30
65880;BME280;52661;51.364;6.054;2022-11-20T02:48:23;100910.81;;;0.27;96.50
65880;BME280;52661;51.364;6.054;2022-11-20T02:50:48;100916.50;;;0.25;96.98
65880;BME280;52661;51.364;6.054;2022-11-20T02:53:14;100908.47;;;0.42;96.50
65880;BME280;52661;51.364;6.054;2022-11-20T02:55:39;100916.97;;;0.36;96.56
65880;BME280;52661;51.364;6.054;2022-11-20T02:58:04;100917.72;;;0.36;96.61
65880;BME280;52661;51.364;6.054;2022-11-20T03:00:30;100923.06;;;0.36;96.88
65880;BME280;52661;51.364;6.054;2022-11-20T03:02:55;100912.09;;;0.38;97.51
65880;BME280;52661;51.364;6.054;2022-11-20T03:05:21;100912.72;;;0.35;97.41
65880;BME280;52661;51.364;6.054;2022-11-20T03:07:46;100904.06;;;0.38;96.70
65880;BME280;52661;51.364;6.054;2022-11-20T03:10:11;100919.00;;;0.30;97.18
65880;BME280;52661;51.364;6.054;2022-11-20T03:12:36;100916.81;;;0.24;97.71
65880;BME280;52661;51.364;6.054;2022-11-20T03:15:02;100916.50;;;0.25;97.90
65880;BME280;52661;51.364;6.054;2022-11-20T03:17:27;100917.91;;;0.14;97.97
65880;BME280;52661;51.364;6.054;2022-11-20T03:19:54;100915.38;;;0.26;98.48
65880;BME280;52661;51.364;6.054;2022-11-20T03:22:19;100914.44;;;0.31;98.10
65880;BME280;52661;51.364;6.054;2022-11-20T03:24:45;100908.16;;;0.35;97.61
65880;BME280;52661;51.364;6.054;2022-11-20T03:27:10;100909.72;;;0.45;97.82
65880;BME280;52661;51.364;6.054;2022-11-20T03:29:35;100908.16;;;0.61;97.56
65880;BME280;52661;51.364;6.054;2022-11-20T03:32:00;100906.56;;;0.69;97.11
65880;BME280;52661;51.364;6.054;2022-11-20T03:34:26;100915.03;;;0.71;96.95
65880;BME280;52661;51.364;6.054;2022-11-20T03:36:51;100904.53;;;0.57;96.22
65880;BME280;52661;51.364;6.054;2022-11-20T03:39:16;100902.66;;;0.58;96.91
65880;BME280;52661;51.364;6.054;2022-11-20T03:41:42;100910.34;;;0.68;97.42
65880;BME280;52661;51.364;6.054;2022-11-20T03:44:09;100906.09;;;0.67;96.80
65880;BME280;52661;51.364;6.054;2022-11-20T03:46:35;100901.53;;;0.67;96.18
65880;BME280;52661;51.364;6.054;2022-11-20T03:49:01;100906.72;;;0.64;96.26
65880;BME280;52661;51.364;6.054;2022-11-20T03:51:31;100895.25;;;0.72;95.94
65880;BME280;52661;51.364;6.054;2022-11-20T03:53:59;100888.63;;;0.69;95.96
65880;BME280;52661;51.364;6.054;2022-11-20T03:56:26;100880.78;;;0.64;97.02
65880;BME280;52661;51.364;6.054;2022-11-20T03:58:52;100883.47;;;0.64;98.28
65880;BME280;52661;51.364;6.054;2022-11-20T04:01:25;100877.66;;;0.62;97.58
65880;BME280;52661;51.364;6.054;2022-11-20T04:03:52;100892.56;;;0.63;97.65
65880;BME280;52661;51.364;6.054;2022-11-20T04:06:23;100885.50;;;0.67;96.60
65880;BME280;52661;51.364;6.054;2022-11-20T04:08:49;100879.66;;;0.74;95.88
65880;BME280;52661;51.364;6.054;2022-11-20T04:11:18;100874.31;;;0.82;96.09
65880;BME280;52661;51.364;6.054;2022-11-20T04:13:52;100860.63;;;0.84;96.75
65880;BME280;52661;51.364;6.054;2022-11-20T04:16:19;100873.09;;;0.71;96.24
65880;BME280;52661;51.364;6.054;2022-11-20T04:18:44;100868.69;;;0.67;96.35
65880;BME280;52661;51.364;6.054;2022-11-20T04:21:10;100867.44;;;0.64;96.97
65880;BME280;52661;51.364;6.054;2022-11-20T04:23:36;100860.22;;;0.65;97.25
65880;BME280;52661;51.364;6.054;2022-11-20T04:26:08;100859.72;;;0.71;97.74
65880;BME280;52661;51.364;6.054;2022-11-20T04:28:34;100864.72;;;0.73;97.54
65880;BME280;52661;51.364;6.054;2022-11-20T04:31:07;100866.31;;;0.74;98.64
65880;BME280;52661;51.364;6.054;2022-11-20T04:33:34;100865.38;;;0.70;98.42
65880;BME280;52661;51.364;6.054;2022-11-20T04:36:01;100863.34;;;0.75;98.68
65880;BME280;52661;51.364;6.054;2022-11-20T04:38:27;100869.41;;;0.84;98.38
65880;BME280;52661;51.364;6.054;2022-11-20T04:40:56;100863.16;;;0.80;98.76
65880;BME280;52661;51.364;6.054;2022-11-20T04:43:22;100868.97;;;0.82;98.91
65880;BME280;52661;51.364;6.054;2022-11-20T04:45:51;100873.34;;;0.87;97.36
65880;BME280;52661;51.364;6.054;2022-11-20T04:48:17;100859.50;;;0.93;97.04
65880;BME280;52661;51.364;6.054;2022-11-20T04:50:42;100864.41;;;0.83;97.95
65880;BME280;52661;51.364;6.054;2022-11-20T04:53:07;100870.06;;;0.90;98.52
65880;BME280;52661;51.364;6.054;2022-11-20T04:55:33;100872.22;;;0.96;97.91
65880;BME280;52661;51.364;6.054;2022-11-20T04:57:58;100870.06;;;0.90;97.55
65880;BME280;52661;51.364;6.054;2022-11-20T05:00:23;100862.78;;;0.99;97.66
65880;BME280;52661;51.364;6.054;2022-11-20T05:02:49;100858.72;;;0.93;97.50
65880;BME280;52661;51.364;6.054;2022-11-20T05:05:14;100864.50;;;1.04;96.89
65880;BME280;52661;51.364;6.054;2022-11-20T05:07:39;100861.84;;;0.95;97.00
65880;BME280;52661;51.364;6.054;2022-11-20T05:10:05;100852.72;;;0.96;96.82
65880;BME280;52661;51.364;6.054;2022-11-20T05:12:31;100853.22;;;0.89;97.04
65880;BME280;52661;51.364;6.054;2022-11-20T05:14:56;100857.47;;;0.90;97.18
65880;BME280;52661;51.364;6.054;2022-11-20T05:17:21;100865.59;;;1.03;97.49
65880;BME280;52661;51.364;6.054;2022-11-20T05:19:47;100865.13;;;1.01;97.67
65880;BME280;52661;51.364;6.054;2022-11-20T05:22:12;100862.78;;;0.99;98.16
65880;BME280;52661;51.364;6.054;2022-11-20T05:24:37;100860.09;;;0.99;98.17
65880;BME280;52661;51.364;6.054;2022-11-20T05:27:02;100857.44;;;0.99;98.91
65880;BME280;52661;51.364;6.054;2022-11-20T05:29:28;100849.84;;;1.10;98.78
65880;BME280;52661;51.364;6.054;2022-11-20T05:31:53;100854.09;;;1.11;98.38
65880;BME280;52661;51.364;6.054;2022-11-20T05:34:18;100845.31;;;1.02;99.36
65880;BME280;52661;51.364;6.054;2022-11-20T05:36:44;100839.38;;;0.96;98.82
65880;BME280;52661;51.364;6.054;2022-11-20T05:39:09;100845.81;;;0.95;99.01
65880;BME280;52661;51.364;6.054;2022-11-20T05:41:34;100833.09;;;0.92;99.32
65880;BME280;52661;51.364;6.054;2022-11-20T05:44:00;100840.97;;;0.88;99.92
65880;BME280;52661;51.364;6.054;2022-11-20T05:46:25;100844.13;;;0.90;99.85
65880;BME280;52661;51.364;6.054;2022-11-20T05:48:51;100833.59;;;0.85;100.00
65880;BME280;52661;51.364;6.054;2022-11-20T05:51:18;100837.69;;;0.83;100.00
65880;BME280;52661;51.364;6.054;2022-11-20T05:53:44;100839.72;;;0.86;100.00
65880;BME280;52661;51.364;6.054;2022-11-20T05:56:12;100842.41;;;0.77;100.00
65880;BME280;52661;51.364;6.054;2022-11-20T05:58:38;100840.09;;;0.67;100.00
65880;BME280;52661;51.364;6.054;2022-11-20T06:01:24;100847.00;;;0.68;100.00
65880;BME280;52661;51.364;6.054;2022-11-20T06:03:50;100835.19;;;0.69;100.00
65880;BME280;52661;51.364;6.054;2022-11-20T06:06:16;100839.88;;;0.81;100.00
65880;BME280;52661;51.364;6.054;2022-11-20T06:08:42;100834.25;;;0.82;100.00
65880;BME280;52661;51.364;6.054;2022-11-20T06:11:10;100833.44;;;0.90;100.00
65880;BME280;52661;51.364;6.054;2022-11-20T06:13:37;100832.38;;;0.74;100.00
65880;BME280;52661;51.364;6.054;2022-11-20T06:16:02;100845.38;;;0.84;100.00
65880;BME280;52661;51.364;6.054;2022-11-20T06:18:29;100845.84;;;0.86;100.00
65880;BME280;52661;51.364;6.054;2022-11-20T06:21:03;100850.91;;;0.79;100.00
65880;BME280;52661;51.364;6.054;2022-11-20T06:23:30;100860.31;;;0.85;100.00
65880;BME280;52661;51.364;6.054;2022-11-20T06:25:55;100860.44;;;0.89;100.00
65880;BME280;52661;51.364;6.054;2022-11-20T06:28:21;100863.25;;;1.01;100.00
65880;BME280;52661;51.364;6.054;2022-11-20T06:30:47;100870.34;;;0.97;100.00
65880;BME280;52661;51.364;6.054;2022-11-20T06:33:12;100863.06;;;1.06;100.00
65880;BME280;52661;51.364;6.054;2022-11-20T06:35:37;100868.88;;;1.08;100.00
65880;BME280;52661;51.364;6.054;2022-11-20T06:38:02;100873.09;;;1.09;100.00
65880;BME280;52661;51.364;6.054;2022-11-20T06:40:28;100870.56;;;1.13;100.00
65880;BME280;52661;51.364;6.054;2022-11-20T06:42:54;100869.78;;;1.12;100.00
65880;BME280;52661;51.364;6.054;2022-11-20T06:45:20;100871.22;;;1.10;100.00
65880;BME280;52661;51.364;6.054;2022-11-20T06:47:45;100880.97;;;1.14;100.00
65880;BME280;52661;51.364;6.054;2022-11-20T06:50:10;100881.78;;;1.06;100.00
65880;BME280;52661;51.364;6.054;2022-11-20T06:52:36;100885.66;;;1.17;100.00
65880;BME280;52661;51.364;6.054;2022-11-20T06:55:01;100885.00;;;1.20;100.00
65880;BME280;52661;51.364;6.054;2022-11-20T06:57:27;100882.34;;;1.20;100.00
65880;BME280;52661;51.364;6.054;2022-11-20T06:59:52;100885.22;;;1.15;100.00
65880;BME280;52661;51.364;6.054;2022-11-20T07:02:17;100880.66;;;1.16;100.00
65880;BME280;52661;51.364;6.054;2022-11-20T07:04:42;100883.94;;;1.13;100.00
65880;BME280;52661;51.364;6.054;2022-11-20T07:07:08;100872.47;;;1.12;100.00
65880;BME280;52661;51.364;6.054;2022-11-20T07:09:33;100888.50;;;1.12;100.00
65880;BME280;52661;51.364;6.054;2022-11-20T07:11:59;100877.63;;;1.17;100.00
65880;BME280;52661;51.364;6.054;2022-11-20T07:14:24;100881.88;;;1.18;100.00
65880;BME280;52661;51.364;6.054;2022-11-20T07:16:49;100877.00;;;1.20;100.00
65880;BME280;52661;51.364;6.054;2022-11-20T07:19:15;100870.09;;;1.19;100.00
65880;BME280;52661;51.364;6.054;2022-11-20T07:21:40;100871.06;;;1.15;100.00
65880;BME280;52661;51.364;6.054;2022-11-20T07:24:05;100878.41;;;1.26;100.00
65880;BME280;52661;51.364;6.054;2022-11-20T07:26:31;100876.19;;;1.28;100.00
65880;BME280;52661;51.364;6.054;2022-11-20T07:28:56;100870.38;;;1.26;100.00
65880;BME280;52661;51.364;6.054;2022-11-20T07:31:21;100864.38;;;1.29;100.00
65880;BME280;52661;51.364;6.054;2022-11-20T07:33:47;100865.94;;;1.30;100.00
65880;BME280;52661;51.364;6.054;2022-11-20T07:36:12;100864.56;;;1.24;100.00
65880;BME280;52661;51.364;6.054;2022-11-20T07:38:38;100864.69;;;1.28;100.00
65880;BME280;52661;51.364;6.054;2022-11-20T07:41:03;100866.41;;;1.32;100.00
65880;BME280;52661;51.364;6.054;2022-11-20T07:43:29;100871.59;;;1.37;100.00
65880;BME280;52661;51.364;6.054;2022-11-20T07:45:55;100871.09;;;1.35;100.00
65880;BME280;52661;51.364;6.054;2022-11-20T07:48:21;100874.28;;;1.29;100.00
65880;BME280;52661;51.364;6.054;2022-11-20T07:50:46;100877.25;;;1.36;100.00
65880;BME280;52661;51.364;6.054;2022-11-20T07:53:12;100869.81;;;1.41;100.00
65880;BME280;52661;51.364;6.054;2022-11-20T07:55:39;100869.81;;;1.41;100.00
65880;BME280;52661;51.364;6.054;2022-11-20T07:58:04;100866.81;;;1.43;100.00
65880;BME280;52661;51.364;6.054;2022-11-20T08:00:30;100861.78;;;1.41;100.00
65880;BME280;52661;51.364;6.054;2022-11-20T08:02:55;100857.84;;;1.47;100.00
65880;BME280;52661;51.364;6.054;2022-11-20T08:05:21;100856.53;;;1.54;100.00
65880;BME280;52661;51.364;6.054;2022-11-20T08:07:46;100850.66;;;1.60;100.00
65880;BME280;52661;51.364;6.054;2022-11-20T08:10:14;100847.84;;;1.57;100.00
65880;BME280;52661;51.364;6.054;2022-11-20T08:12:48;100851.00;;;1.59;100.00
65880;BME280;52661;51.364;6.054;2022-11-20T08:15:33;100844.88;;;1.58;100.00
65880;BME280;52661;51.364;6.054;2022-11-20T08:18:04;100852.56;;;1.60;100.00
65880;BME280;52661;51.364;6.054;2022-11-20T08:20:30;100846.22;;;1.64;100.00
65880;BME280;52661;51.364;6.054;2022-11-20T08:23:03;100847.69;;;1.62;100.00
65880;BME280;52661;51.364;6.054;2022-11-20T08:25:31;100854.25;;;1.64;100.00
65880;BME280;52661;51.364;6.054;2022-11-20T08:28:01;100845.28;;;1.69;100.00
65880;BME280;52661;51.364;6.054;2022-11-20T08:30:26;100847.16;;;1.68;100.00
65880;BME280;52661;51.364;6.054;2022-11-20T08:32:52;100843.69;;;1.68;100.00
65880;BME280;52661;51.364;6.054;2022-11-20T08:35:18;100841.81;;;1.68;100.00
65880;BME280;52661;51.364;6.054;2022-11-20T08:37:46;100849.88;;;1.60;100.00
65880;BME280;52661;51.364;6.054;2022-11-20T08:40:11;100839.44;;;1.67;100.00
65880;BME280;52661;51.364;6.054;2022-11-20T08:42:37;100844.03;;;1.66;100.00
65880;BME280;52661;51.364;6.054;2022-11-20T08:45:03;100834.88;;;1.67;100.00
65880;BME280;52661;51.364;6.054;2022-11-20T08:47:28;100831.69;;;1.74;100.00
65880;BME280;52661;51.364;6.054;2022-11-20T08:49:53;100835.09;;;1.83;100.00
65880;BME280;52661;51.364;6.054;2022-11-20T08:52:19;100834.66;;;1.81;100.00
65880;BME280;52661;51.364;6.054;2022-11-20T08:54:44;100831.69;;;1.94;100.00
65880;BME280;52661;51.364;6.054;2022-11-20T08:57:09;100833.38;;;1.99;100.00
65880;BME280;52661;51.364;6.054;2022-11-20T08:59:34;100828.38;;;1.97;100.00
65880;BME280;52661;51.364;6.054;2022-11-20T09:02:00;100822.22;;;1.97;100.00
65880;BME280;52661;51.364;6.054;2022-11-20T09:04:25;100825.22;;;1.95;100.00
65880;BME280;52661;51.364;6.054;2022-11-20T09:06:50;100840.56;;;2.07;100.00
65880;BME280;52661;51.364;6.054;2022-11-20T09:09:17;100851.41;;;2.11;100.00
65880;BME280;52661;51.364;6.054;2022-11-20T09:11:43;100843.59;;;2.06;100.00
65880;BME280;52661;51.364;6.054;2022-11-20T09:14:08;100846.69;;;2.08;100.00
65880;BME280;52661;51.364;6.054;2022-11-20T09:16:34;100850.28;;;2.12;100.00
65880;BME280;52661;51.364;6.054;2022-11-20T09:18:59;100845.84;;;2.16;100.00
65880;BME280;52661;51.364;6.054;2022-11-20T09:21:24;100848.00;;;2.22;100.00
65880;BME280;52661;51.364;6.054;2022-11-20T09:23:50;100841.53;;;2.23;100.00
65880;BME280;52661;51.364;6.054;2022-11-20T09:26:15;100850.09;;;2.17;100.00
65880;BME280;52661;51.364;6.054;2022-11-20T09:28:40;100845.00;;;2.24;100.00
65880;BME280;52661;51.364;6.054;2022-11-20T09:31:22;100831.72;;;2.27;100.00
65880;BME280;52661;51.364;6.054;2022-11-20T09:33:48;100830.41;;;2.33;100.00
65880;BME280;52661;51.364;6.054;2022-11-20T09:36:13;100833.94;;;2.25;100.00
65880;BME280;52661;51.364;6.054;2022-11-20T09:38:39;100829.50;;;2.29;100.00
65880;BME280;52661;51.364;6.054;2022-11-20T09:41:06;100840.75;;;2.23;100.00
65880;BME280;52661;51.364;6.054;2022-11-20T09:46:37;100824.03;;;2.26;100.00
65880;BME280;52661;51.364;6.054;2022-11-20T09:55:16;100811.22;;;2.43;100.00
65880;BME280;52661;51.364;6.054;2022-11-20T09:57:47;100808.78;;;2.38;100.00
65880;BME280;52661;51.364;6.054;2022-11-20T10:00:14;100810.31;;;2.39;100.00
65880;BME280;52661;51.364;6.054;2022-11-20T10:05:21;100808.78;;;2.51;100.00
65880;BME280;52661;51.364;6.054;2022-11-20T10:10:46;100790.75;;;2.60;100.00
65880;BME280;52661;51.364;6.054;2022-11-20T10:16:21;100787.72;;;2.61;100.00
65880;BME280;52661;51.364;6.054;2022-11-20T10:19:02;100786.06;;;2.69;100.00
65880;BME280;52661;51.364;6.054;2022-11-20T10:24:43;100765.88;;;2.71;100.00
65880;BME280;52661;51.364;6.054;2022-11-20T10:32:37;100770.09;;;2.84;100.00
65880;BME280;52661;51.364;6.054;2022-11-20T10:35:18;100752.81;;;2.82;100.00
65880;BME280;52661;51.364;6.054;2022-11-20T10:37:49;100745.63;;;2.86;100.00
65880;BME280;52661;51.364;6.054;2022-11-20T10:42:51;100735.91;;;2.93;100.00
65880;BME280;52661;51.364;6.054;2022-11-20T10:48:07;100726.44;;;2.96;100.00
65880;BME280;52661;51.364;6.054;2022-11-20T10:50:36;100714.03;;;2.91;100.00
65880;BME280;52661;51.364;6.054;2022-11-20T10:56:00;100693.81;;;2.94;100.00
65880;BME280;52661;51.364;6.054;2022-11-20T10:58:36;100694.16;;;2.92;100.00
65880;BME280;52661;51.364;6.054;2022-11-20T11:01:04;100689.78;;;3.00;100.00
65880;BME280;52661;51.364;6.054;2022-11-20T11:03:31;100688.75;;;3.05;100.00
65880;BME280;52661;51.364;6.054;2022-11-20T11:06:19;100686.88;;;3.05;100.00
65880;BME280;52661;51.364;6.054;2022-11-20T11:08:47;100682.38;;;3.09;100.00
65880;BME280;52661;51.364;6.054;2022-11-20T11:11:31;100684.06;;;3.14;100.00
65880;BME280;52661;51.364;6.054;2022-11-20T11:14:11;100680.69;;;3.17;100.00
65880;BME280;52661;51.364;6.054;2022-11-20T11:16:49;100679.34;;;3.23;100.00
65880;BME280;52661;51.364;6.054;2022-11-20T11:19:16;100672.84;;;3.24;100.00
65880;BME280;52661;51.364;6.054;2022-11-20T11:21:53;100675.00;;;3.18;100.00
65880;BME280;52661;51.364;6.054;2022-11-20T11:24:28;100670.28;;;3.27;100.00
65880;BME280;52661;51.364;6.054;2022-11-20T11:27:09;100661.69;;;3.22;100.00
65880;BME280;52661;51.364;6.054;2022-11-20T11:29:36;100667.16;;;3.25;100.00
65880;BME280;52661;51.364;6.054;2022-11-20T11:32:17;100639.75;;;3.32;100.00
65880;BME280;52661;51.364;6.054;2022-11-20T11:34:43;100642.53;;;3.35;100.00
65880;BME280;52661;51.364;6.054;2022-11-20T11:37:34;100643.84;;;3.41;100.00
65880;BME280;52661;51.364;6.054;2022-11-20T11:40:01;100633.66;;;3.47;100.00
65880;BME280;52661;51.364;6.054;2022-11-20T11:42:27;100633.66;;;3.47;100.00
65880;BME280;52661;51.364;6.054;2022-11-20T11:44:54;100626.38;;;3.47;100.00
65880;BME280;52661;51.364;6.054;2022-11-20T11:52:41;100634.00;;;3.45;100.00
65880;BME280;52661;51.364;6.054;2022-11-20T11:55:14;100625.94;;;3.45;100.00
65880;BME280;52661;51.364;6.054;2022-11-20T11:58:08;100632.53;;;3.48;100.00
65880;BME280;52661;51.364;6.054;2022-11-20T12:00:35;100627.94;;;3.48;100.00
65880;BME280;52661;51.364;6.054;2022-11-20T12:03:33;100623.34;;;3.49;100.00
65880;BME280;52661;51.364;6.054;2022-11-20T12:06:08;100616.88;;;3.50;100.00
65880;BME280;52661;51.364;6.054;2022-11-20T12:08:59;100619.19;;;3.52;100.00
65880;BME280;52661;51.364;6.054;2022-11-20T12:11:55;100609.78;;;3.58;100.00
65880;BME280;52661;51.364;6.054;2022-11-20T12:14:37;100603.66;;;3.57;100.00
65880;BME280;52661;51.364;6.054;2022-11-20T12:17:04;100595.59;;;3.57;100.00
65880;BME280;52661;51.364;6.054;2022-11-20T12:19:31;100596.47;;;3.61;100.00
65880;BME280;52661;51.364;6.054;2022-11-20T12:22:30;100598.00;;;3.62;100.00
65880;BME280;52661;51.364;6.054;2022-11-20T12:25:06;100590.75;;;3.63;100.00
65880;BME280;52661;51.364;6.054;2022-11-20T12:36:36;100558.81;;;3.73;100.00
65880;BME280;52661;51.364;6.054;2022-11-20T12:39:25;100555.00;;;3.74;100.00
65880;BME280;52661;51.364;6.054;2022-11-20T12:59:23;100501.94;;;3.83;100.00
65880;BME280;52661;51.364;6.054;2022-11-20T13:07:19;100488.84;;;3.82;100.00
65880;BME280;52661;51.364;6.054;2022-11-20T13:09:48;100483.16;;;3.83;100.00
65880;BME280;52661;51.364;6.054;2022-11-20T13:15:07;100491.28;;;3.87;100.00
65880;BME280;52661;51.364;6.054;2022-11-20T13:17:47;100486.66;;;3.87;100.00
65880;BME280;52661;51.364;6.054;2022-11-20T13:20:18;100485.63;;;3.92;100.00
65880;BME280;52661;51.364;6.054;2022-11-20T13:22:49;100476.09;;;3.94;100.00
65880;BME280;52661;51.364;6.054;2022-11-20T13:25:34;100461.63;;;3.99;100.00
65880;BME280;52661;51.364;6.054;2022-11-20T13:28:04;100452.84;;;4.02;100.00
65880;BME280;52661;51.364;6.054;2022-11-20T13:30:31;100441.44;;;4.05;100.00
65880;BME280;52661;51.364;6.054;2022-11-20T13:33:31;100438.38;;;4.07;100.00
65880;BME280;52661;51.364;6.054;2022-11-20T13:36:07;100436.06;;;4.05;100.00
65880;BME280;52661;51.364;6.054;2022-11-20T13:38:53;100430.69;;;4.05;100.00
65880;BME280;52661;51.364;6.054;2022-11-20T13:41:33;100418.09;;;4.09;100.00
65880;BME280;52661;51.364;6.054;2022-11-20T13:49:09;100412.81;;;4.13;100.00
65880;BME280;52661;51.364;6.054;2022-11-20T13:51:50;100404.81;;;4.16;100.00
65880;BME280;52661;51.364;6.054;2022-11-20T13:54:22;100410.19;;;4.16;100.00
65880;BME280;52661;51.364;6.054;2022-11-20T13:59:58;100383.06;;;4.21;100.00
65880;BME280;52661;51.364;6.054;2022-11-20T14:02:27;100382.28;;;4.21;100.00
65880;BME280;52661;51.364;6.054;2022-11-20T14:04:56;100369.63;;;4.21;100.00
65880;BME280;52661;51.364;6.054;2022-11-20T14:07:27;100368.22;;;4.27;100.00
65880;BME280;52661;51.364;6.054;2022-11-20T14:09:57;100362.84;;;4.27;100.00
65880;BME280;52661;51.364;6.054;2022-11-20T14:12:30;100359.38;;;4.27;100.00
65880;BME280;52661;51.364;6.054;2022-11-20T14:14:56;100344.03;;;4.27;100.00
65880;BME280;52661;51.364;6.054;2022-11-20T14:19:58;100337.88;;;4.27;100.00
65880;BME280;52661;51.364;6.054;2022-11-20T14:22:26;100340.22;;;4.28;100.00
65880;BME280;52661;51.364;6.054;2022-11-20T14:27:37;100338.03;;;4.34;100.00
65880;BME280;52661;51.364;6.054;2022-11-20T14:30:04;100339.56;;;4.35;100.00
65880;BME280;52661;51.364;6.054;2022-11-20T14:32:31;100330.03;;;4.37;100.00
65880;BME280;52661;51.364;6.054;2022-11-20T14:35:00;100323.53;;;4.38;100.00